Time;durP1;ratioP1;P1;durP2;ratioP2;P2;SDS_P1;SDS_P2;PMS_P1;PMS_P2;Temp;Humidity;BMP_temperature;BMP_pressure;BME280_temperature;BME280_humidity;BME280_pressure;Samples;Min_cycle;Max_cycle;Signal;HPM_P1;HPM_P2
2023/11/02 00:00:44;;;;;;;3.92;0.43;;;12.30;99.90;;;;;;4101584;28;20644;-88
2023/11/02 00:02:44;;;;;;;0.25;0.20;;;12.40;99.90;;;;;;4101140;29;20189;-89
2023/11/02 00:04:45;;;;;;;3.28;0.75;;;12.40;99.90;;;;;;4101640;29;20183;-88
2023/11/02 00:06:49;;;;;;;1.13;0.30;;;12.40;99.90;;;;;;4101638;28;20175;-87
2023/11/02 00:09:18;;;;;;;6.07;0.50;;;12.20;99.90;;;;;;4117140;28;20263;-87
2023/11/02 00:11:46;;;;;;;2.47;0.50;;;12.10;99.90;;;;;;4101237;29;20183;-88
2023/11/02 00:13:50;;;;;;;0.10;0.10;;;12.10;99.90;;;;;;4101698;29;20195;-88
2023/11/02 00:15:51;;;;;;;2.33;0.30;;;12.20;99.90;;;;;;4117657;28;20217;-87
2023/11/02 00:17:58;;;;;;;1.27;0.28;;;12.10;99.90;;;;;;4101514;29;20218;-88
2023/11/02 00:20:00;;;;;;;1.35;0.25;;;12.20;99.90;;;;;;4100866;29;20210;-89
2023/11/02 00:22:09;;;;;;;0.30;0.10;;;12.20;99.90;;;;;;4101035;28;20179;-88
2023/11/02 00:24:10;;;;;;;0.50;0.20;;;12.40;99.90;;;;;;4101231;29;20190;-88
2023/11/02 00:26:11;;;;;;;1.45;0.20;;;12.40;99.90;;;;;;4101189;29;20250;-90
2023/11/02 00:28:14;;;;;;;3.90;0.32;;;12.40;99.90;;;;;;4101476;28;20179;-88
2023/11/02 00:30:15;;;;;;;0.90;0.13;;;12.40;99.90;;;;;;4100736;29;20262;-89
2023/11/02 00:32:16;;;;;;;6.35;0.90;;;12.40;99.90;;;;;;4101203;29;20208;-88
2023/11/02 00:34:17;;;;;;;5.45;1.33;;;12.40;99.90;;;;;;4117053;28;20190;-88
2023/11/02 00:36:17;;;;;;;4.28;1.05;;;12.40;99.90;;;;;;4100867;28;20580;-87
2023/11/02 00:38:26;;;;;;;2.55;0.30;;;12.30;99.90;;;;;;4116795;28;20250;-87
2023/11/02 00:40:27;;;;;;;4.18;0.38;;;12.20;99.90;;;;;;4116773;28;20673;-88
2023/11/02 00:42:28;;;;;;;4.90;1.02;;;12.20;99.90;;;;;;4116773;28;20184;-89
2023/11/02 00:44:28;;;;;;;5.97;0.45;;;12.20;99.90;;;;;;4100573;29;20183;-88
2023/11/02 00:46:29;;;;;;;1.48;0.47;;;12.00;99.90;;;;;;4116484;28;20226;-88
2023/11/02 00:48:33;;;;;;;5.40;0.85;;;12.00;99.90;;;;;;4100986;29;20642;-87
2023/11/02 00:50:45;;;;;;;4.60;0.32;;;12.20;99.90;;;;;;4116838;28;20221;-89
2023/11/02 00:52:46;;;;;;;1.83;0.40;;;12.20;99.90;;;;;;4116701;28;20185;-88
2023/11/02 00:54:57;;;;;;;4.55;0.47;;;12.10;99.90;;;;;;4100598;29;20194;-87
2023/11/02 00:57:00;;;;;;;7.10;0.73;;;12.20;99.90;;;;;;4100668;29;20230;-87
2023/11/02 00:59:03;;;;;;;5.45;0.95;;;12.10;99.90;;;;;;4100805;28;20213;-88
2023/11/02 01:01:07;;;;;;;1.02;0.38;;;12.00;99.90;;;;;;4100732;29;20179;-89
2023/11/02 01:03:09;;;;;;;6.03;0.65;;;12.10;99.90;;;;;;4100544;29;20635;-87
2023/11/02 01:05:22;;;;;;;5.78;0.68;;;12.10;99.90;;;;;;4100437;29;20686;-89
2023/11/02 01:07:24;;;;;;;4.65;0.52;;;12.20;99.90;;;;;;4100528;29;20179;-89
2023/11/02 01:09:45;;;;;;;0.38;0.10;;;12.20;99.90;;;;;;4116290;28;20288;-87
2023/11/02 01:11:46;;;;;;;1.17;0.08;;;12.10;99.90;;;;;;4116583;28;20881;-88
2023/11/02 01:13:47;;;;;;;4.07;0.57;;;12.00;99.90;;;;;;4100489;29;20636;-88
2023/11/02 01:15:56;;;;;;;3.30;0.82;;;11.90;99.90;;;;;;4100348;28;20255;-88
2023/11/02 01:17:57;;;;;;;1.00;0.60;;;12.00;99.90;;;;;;4100377;28;20253;-89
2023/11/02 01:20:05;;;;;;;4.72;0.93;;;12.00;99.90;;;;;;4100086;29;20289;-87
2023/11/02 01:22:29;;;;;;;0.55;0.17;;;12.00;99.90;;;;;;4100326;29;20607;-88
2023/11/02 01:24:31;;;;;;;5.63;0.75;;;12.00;99.90;;;;;;4100183;28;20183;-89
2023/11/02 01:26:55;;;;;;;0.25;0.10;;;12.00;99.90;;;;;;4116816;28;20232;-88
2023/11/02 01:28:56;;;;;;;2.00;0.40;;;12.00;99.90;;;;;;4109991;28;20271;-89
2023/11/02 01:31:08;;;;;;;10.27;0.65;;;11.90;99.90;;;;;;4099755;29;20227;-89
2023/11/02 01:33:34;;;;;;;5.55;0.43;;;11.90;99.90;;;;;;4115556;28;20185;-87
2023/11/02 01:35:43;;;;;;;4.47;0.63;;;11.90;99.90;;;;;;4115906;28;20264;-89
2023/11/02 01:37:47;;;;;;;2.28;0.40;;;11.90;99.90;;;;;;4116511;28;20222;-86
2023/11/02 01:39:56;;;;;;;2.95;0.85;;;11.90;99.90;;;;;;4099918;28;20207;-88
2023/11/02 01:42:14;;;;;;;3.85;0.57;;;11.90;99.90;;;;;;4100054;28;20290;-89
2023/11/02 01:44:19;;;;;;;0.15;0.10;;;11.90;99.90;;;;;;4116413;28;20237;-87
2023/11/02 01:47:24;;;;;;;0.73;0.15;;;11.90;99.90;;;;;;4115462;28;20281;-87
2023/11/02 01:49:43;;;;;;;0.50;0.30;;;11.90;99.90;;;;;;4081446;29;20211;-87
2023/11/02 01:51:59;;;;;;;7.10;0.30;;;11.80;99.90;;;;;;4083479;29;20266;-88
2023/11/02 01:54:23;;;;;;;6.68;1.05;;;12.00;99.90;;;;;;4072614;28;20197;-87
2023/11/02 01:56:33;;;;;;;0.73;0.35;;;12.00;99.90;;;;;;4115499;28;20174;-90
2023/11/02 01:59:03;;;;;;;2.50;0.20;;;12.10;99.90;;;;;;4115484;28;20285;-87
2023/11/02 02:01:13;;;;;;;2.40;0.60;;;12.00;99.90;;;;;;4099668;29;20186;-87
2023/11/02 02:03:26;;;;;;;1.40;0.30;;;12.00;99.90;;;;;;4099965;29;20190;-88
2023/11/02 02:05:48;;;;;;;0.10;0.10;;;12.00;99.90;;;;;;4099779;29;20261;-89
2023/11/02 02:08:27;;;;;;;0.57;0.10;;;12.00;99.90;;;;;;4115451;28;20269;-87
2023/11/02 02:10:54;;;;;;;2.72;0.30;;;12.10;99.90;;;;;;4052259;29;20184;-88
2023/11/02 02:13:10;;;;;;;1.00;0.22;;;12.20;99.90;;;;;;4083486;29;20191;-89
2023/11/02 02:15:23;;;;;;;4.28;0.30;;;12.10;99.90;;;;;;4092007;28;20654;-88
2023/11/02 02:17:50;;;;;;;1.05;0.40;;;12.00;99.90;;;;;;4099941;29;20272;-88
2023/11/02 02:20:12;;;;;;;0.70;0.10;;;12.00;99.90;;;;;;4100173;29;20242;-88
2023/11/02 02:22:24;;;;;;;0.43;0.10;;;12.10;99.90;;;;;;4115852;28;20174;-87
2023/11/02 02:24:43;;;;;;;0.57;0.20;;;12.00;99.90;;;;;;4099560;29;20198;-88
2023/11/02 02:27:03;;;;;;;3.25;0.25;;;12.10;99.90;;;;;;4115658;28;20257;-89
2023/11/02 02:29:21;;;;;;;0.63;0.30;;;12.20;99.90;;;;;;4099980;29;20250;-88
2023/11/02 02:31:47;;;;;;;2.10;0.30;;;12.30;99.90;;;;;;4100062;28;20278;-87
2023/11/02 02:33:47;;;;;;;2.58;0.45;;;12.20;99.90;;;;;;4099926;28;20753;-89
2023/11/02 02:35:56;;;;;;;1.10;0.40;;;12.10;99.90;;;;;;4115788;28;20182;-89
2023/11/02 02:38:07;;;;;;;0.05;0.00;;;12.10;99.90;;;;;;4099554;29;20229;-89
2023/11/02 02:40:17;;;;;;;0.35;0.32;;;12.10;99.90;;;;;;4116098;28;20206;-87
2023/11/02 02:42:19;;;;;;;3.53;0.30;;;12.10;99.90;;;;;;4100016;29;20273;-90
2023/11/02 02:44:24;;;;;;;1.25;0.20;;;12.10;99.90;;;;;;4099599;28;20186;-87
2023/11/02 02:46:28;;;;;;;3.10;0.17;;;12.20;99.90;;;;;;4099947;29;20199;-88
2023/11/02 02:48:29;;;;;;;5.40;0.43;;;12.20;99.90;;;;;;4099501;29;20218;-89
2023/11/02 02:50:34;;;;;;;0.10;0.10;;;12.30;99.90;;;;;;4099464;28;20179;-88
2023/11/02 02:52:37;;;;;;;0.88;0.10;;;12.20;99.90;;;;;;4099429;28;20652;-89
2023/11/02 02:54:44;;;;;;;0.93;0.30;;;12.30;99.90;;;;;;4099219;29;20331;-87
2023/11/02 02:56:48;;;;;;;0.90;0.17;;;12.30;99.90;;;;;;4099453;29;20177;-88
2023/11/02 02:59:00;;;;;;;1.70;0.22;;;12.40;99.90;;;;;;4100128;28;20230;-89
2023/11/02 03:01:04;;;;;;;0.30;0.20;;;12.40;99.90;;;;;;4103085;29;20555;-89
2023/11/02 03:03:05;;;;;;;3.00;0.32;;;12.40;99.90;;;;;;4118862;28;20186;-88
2023/11/02 03:05:09;;;;;;;2.45;0.75;;;12.40;99.90;;;;;;4118644;28;20190;-88
2023/11/02 03:07:12;;;;;;;1.55;0.20;;;12.40;99.90;;;;;;4102405;29;20198;-89
2023/11/02 03:09:16;;;;;;;5.03;0.75;;;12.50;99.90;;;;;;4102791;29;20194;-88
2023/11/02 03:11:19;;;;;;;0.15;0.10;;;12.30;99.90;;;;;;4118917;28;20241;-87
2023/11/02 03:13:21;;;;;;;0.55;0.00;;;12.30;99.90;;;;;;4102651;28;20175;-89
2023/11/02 03:15:28;;;;;;;3.92;0.30;;;12.30;99.90;;;;;;4118654;28;20554;-89
2023/11/02 03:17:55;;;;;;;1.60;0.20;;;12.30;99.90;;;;;;4101696;29;20311;-87
2023/11/02 03:19:57;;;;;;;0.22;0.10;;;12.30;99.90;;;;;;4118174;28;20238;-87
2023/11/02 03:21:57;;;;;;;5.53;0.10;;;12.30;99.90;;;;;;4135583;28;20185;-87
2023/11/02 03:24:10;;;;;;;0.05;0.05;;;12.30;99.90;;;;;;4102018;28;20547;-89
2023/11/02 03:26:37;;;;;;;1.35;0.20;;;12.30;99.90;;;;;;4102242;29;20189;-89
2023/11/02 03:29:01;;;;;;;0.75;0.17;;;12.40;99.90;;;;;;4102007;29;20229;-87
2023/11/02 03:31:17;;;;;;;1.33;0.22;;;12.40;99.90;;;;;;4102786;28;20182;-87
2023/11/02 03:33:36;;;;;;;0.75;0.10;;;12.50;99.90;;;;;;4118085;28;20182;-88
2023/11/02 03:35:51;;;;;;;0.45;0.25;;;12.60;99.90;;;;;;4102376;29;20273;-88
2023/11/02 03:38:17;;;;;;;0.47;0.10;;;12.50;99.90;;;;;;4102188;29;20591;-87
2023/11/02 03:40:39;;;;;;;0.00;0.00;;;12.50;99.90;;;;;;4102052;29;20183;-89
2023/11/02 03:43:07;;;;;;;1.20;0.63;;;12.50;99.90;;;;;;4118122;28;20234;-89
2023/11/02 03:45:11;;;;;;;0.20;0.00;;;12.50;99.90;;;;;;4102484;28;20186;-89
2023/11/02 03:47:35;;;;;;;2.55;0.32;;;12.60;99.90;;;;;;4118304;28;20198;-88
2023/11/02 03:49:52;;;;;;;0.40;0.10;;;12.60;99.90;;;;;;4101921;29;20203;-89
2023/11/02 03:52:30;;;;;;;1.98;0.40;;;12.70;99.90;;;;;;4102083;29;20281;-89
2023/11/02 03:54:41;;;;;;;0.85;0.43;;;12.70;99.90;;;;;;4117837;28;20198;-88
2023/11/02 03:57:02;;;;;;;2.15;0.40;;;12.70;99.90;;;;;;4117895;28;20216;-89
2023/11/02 03:59:15;;;;;;;5.70;0.75;;;12.80;99.90;;;;;;4101936;29;20235;-87
2023/11/02 04:01:17;;;;;;;3.33;0.22;;;12.90;99.90;;;;;;4117988;28;20598;-88
2023/11/02 04:03:20;;;;;;;1.38;0.63;;;12.90;99.90;;;;;;4118347;28;20290;-88
2023/11/02 04:05:24;;;;;;;0.55;0.10;;;12.80;99.90;;;;;;4102114;29;20171;-89
2023/11/02 04:07:32;;;;;;;0.52;0.20;;;12.80;99.90;;;;;;4117978;28;20338;-88
2023/11/02 04:09:51;;;;;;;0.93;0.32;;;12.70;99.90;;;;;;4101589;28;20206;-90
2023/11/02 04:12:06;;;;;;;1.10;0.45;;;12.60;99.90;;;;;;4117762;28;20285;-90
2023/11/02 04:14:17;;;;;;;0.47;0.10;;;12.70;99.90;;;;;;4117971;28;20178;-88
2023/11/02 04:16:17;;;;;;;0.30;0.17;;;12.70;99.90;;;;;;4117763;28;20229;-90
2023/11/02 04:18:19;;;;;;;2.63;0.70;;;12.70;99.90;;;;;;4117429;28;20214;-89
2023/11/02 04:20:20;;;;;;;1.48;0.35;;;12.60;99.90;;;;;;4101739;29;20223;-89
2023/11/02 04:22:20;;;;;;;0.10;0.00;;;12.50;99.90;;;;;;4101568;29;20186;-89
2023/11/02 04:24:21;;;;;;;4.05;0.20;;;12.40;99.90;;;;;;4101379;29;20183;-87
2023/11/02 04:26:22;;;;;;;0.60;0.38;;;12.30;99.90;;;;;;4117560;28;20600;-87
2023/11/02 04:28:24;;;;;;;0.00;0.00;;;12.40;99.90;;;;;;4101088;29;20190;-89
2023/11/02 04:30:25;;;;;;;0.98;0.35;;;12.40;99.90;;;;;;4117433;28;20176;-87
2023/11/02 04:32:25;;;;;;;0.30;0.10;;;12.40;99.90;;;;;;4117447;28;20592;-87
2023/11/02 04:34:26;;;;;;;0.00;0.00;;;12.30;99.90;;;;;;4101272;29;20243;-88
2023/11/02 04:36:27;;;;;;;0.60;0.20;;;12.30;99.90;;;;;;4117517;28;20258;-90
2023/11/02 04:38:28;;;;;;;0.45;0.28;;;12.30;99.90;;;;;;4101224;29;20277;-91
2023/11/02 04:40:28;;;;;;;2.63;0.35;;;12.30;99.90;;;;;;4101454;29;20647;-88
2023/11/02 04:42:29;;;;;;;0.03;0.00;;;12.30;99.90;;;;;;4101276;29;20596;-87
2023/11/02 04:44:30;;;;;;;2.22;0.20;;;12.30;99.90;;;;;;4101093;29;20183;-89
2023/11/02 04:46:30;;;;;;;4.43;0.50;;;12.50;99.90;;;;;;4117055;28;20189;-88
2023/11/02 04:48:31;;;;;;;4.72;0.20;;;12.60;99.90;;;;;;4101015;29;20690;-92
2023/11/02 04:50:32;;;;;;;0.52;0.10;;;12.60;99.90;;;;;;4101279;29;20179;-90
2023/11/02 04:52:36;;;;;;;0.85;0.20;;;12.60;99.90;;;;;;4117053;28;20183;-88
2023/11/02 04:54:36;;;;;;;0.00;0.00;;;12.50;99.90;;;;;;4100999;29;20238;-89
2023/11/02 04:56:37;;;;;;;0.35;0.30;;;12.60;99.90;;;;;;4101231;29;20190;-88
2023/11/02 04:58:38;;;;;;;0.15;0.08;;;12.60;99.90;;;;;;4100929;28;20219;-90
2023/11/02 05:00:39;;;;;;;0.35;0.00;;;12.60;99.90;;;;;;4101045;29;20221;-91
2023/11/02 05:02:39;;;;;;;1.25;0.10;;;12.70;99.90;;;;;;4100960;29;20631;-91
2023/11/02 05:04:40;;;;;;;0.30;0.17;;;12.70;99.90;;;;;;4100839;29;20644;-89
2023/11/02 05:06:41;;;;;;;2.17;0.15;;;12.70;99.90;;;;;;4101244;29;20175;-89
2023/11/02 05:08:42;;;;;;;0.95;0.28;;;12.60;99.90;;;;;;4100934;29;20198;-88
2023/11/02 05:10:43;;;;;;;3.30;0.68;;;12.70;99.90;;;;;;4116686;28;20182;-89
2023/11/02 05:12:45;;;;;;;1.13;0.10;;;12.80;99.90;;;;;;4117164;28;20197;-90
2023/11/02 05:14:46;;;;;;;1.10;0.22;;;12.80;99.90;;;;;;4116768;28;20650;-91
2023/11/02 05:16:47;;;;;;;0.32;0.08;;;12.80;99.90;;;;;;4116504;28;20186;-89
2023/11/02 05:18:47;;;;;;;0.10;0.10;;;12.80;99.90;;;;;;4100629;28;20310;-87
2023/11/02 05:20:50;;;;;;;0.80;0.08;;;12.80;99.90;;;;;;4116887;28;20178;-87
2023/11/02 05:22:51;;;;;;;0.30;0.05;;;12.90;99.90;;;;;;4100828;28;20222;-89
2023/11/02 05:24:51;;;;;;;1.58;0.03;;;12.80;99.90;;;;;;4100954;29;20222;-89
2023/11/02 05:26:52;;;;;;;0.00;0.00;;;12.90;99.90;;;;;;4100847;29;20187;-89
2023/11/02 05:28:53;;;;;;;4.47;0.28;;;12.90;99.90;;;;;;4133673;28;20251;-90
2023/11/02 05:30:53;;;;;;;0.30;0.10;;;12.90;99.90;;;;;;4100620;28;20171;-90
2023/11/02 05:32:54;;;;;;;2.83;0.77;;;12.90;99.90;;;;;;4116504;28;20190;-89
2023/11/02 05:34:55;;;;;;;2.67;0.20;;;12.90;99.90;;;;;;4101078;29;20178;-89
2023/11/02 05:36:56;;;;;;;0.05;0.03;;;13.00;99.90;;;;;;4116945;28;20229;-88
2023/11/02 05:38:56;;;;;;;0.00;0.00;;;12.90;99.90;;;;;;4116790;28;20261;-90
2023/11/02 05:40:57;;;;;;;0.08;0.08;;;13.00;99.90;;;;;;4133894;28;20173;-92
2023/11/02 05:42:58;;;;;;;1.10;0.45;;;12.90;99.90;;;;;;4100522;28;20251;-88
2023/11/02 05:44:58;;;;;;;0.57;0.10;;;13.00;99.90;;;;;;4116331;28;20194;-87
2023/11/02 05:46:59;;;;;;;2.95;0.30;;;13.10;99.90;;;;;;4100266;29;20619;-88
2023/11/02 05:49:00;;;;;;;2.45;0.55;;;13.10;99.90;;;;;;4148991;23;20260;-94
2023/11/02 05:51:02;;;;;;;0.52;0.32;;;13.20;99.90;;;;;;4100776;28;20186;-93
2023/11/02 05:53:03;;;;;;;0.10;0.10;;;13.30;99.90;;;;;;4100718;29;20355;-95
2023/11/02 05:55:05;;;;;;;1.23;0.15;;;13.20;99.90;;;;;;4100376;29;20211;-92
2023/11/02 05:57:06;;;;;;;1.60;0.32;;;13.20;99.90;;;;;;4100161;29;20214;-95
2023/11/02 05:59:07;;;;;;;2.15;0.40;;;13.20;99.90;;;;;;4100153;29;20225;-95
2023/11/02 06:01:08;;;;;;;3.92;0.10;;;13.20;99.90;;;;;;4100360;29;20265;-95
2023/11/02 06:03:08;;;;;;;0.45;0.10;;;13.30;99.90;;;;;;4100566;29;20264;-93
2023/11/02 06:05:09;;;;;;;1.50;0.20;;;13.30;99.90;;;;;;4100480;29;20706;-93
2023/11/02 06:07:10;;;;;;;0.52;0.35;;;13.30;99.90;;;;;;4100530;29;20179;-94
2023/11/02 06:09:12;;;;;;;0.63;0.47;;;13.30;99.90;;;;;;4101060;29;20234;-92
2023/11/02 06:11:12;;;;;;;2.95;0.38;;;13.10;99.90;;;;;;4100470;29;20183;-91
2023/11/02 06:13:13;;;;;;;3.85;0.13;;;13.20;99.90;;;;;;4117422;28;20233;-95
2023/11/02 06:15:14;;;;;;;4.28;0.38;;;13.20;99.90;;;;;;4100830;29;20183;-91
2023/11/02 06:17:15;;;;;;;2.58;0.30;;;13.20;99.90;;;;;;4116096;28;20225;-93
2023/11/02 06:19:16;;;;;;;4.50;0.47;;;13.20;99.90;;;;;;4100048;29;20245;-91
2023/11/02 06:21:17;;;;;;;0.20;0.20;;;13.30;99.90;;;;;;4116596;28;20193;-93
2023/11/02 06:23:18;;;;;;;1.13;0.73;;;13.20;99.90;;;;;;4100830;29;20587;-92
2023/11/02 06:25:22;;;;;;;2.25;0.55;;;13.20;99.90;;;;;;4100713;28;20190;-92
2023/11/02 06:27:22;;;;;;;0.00;0.00;;;13.20;99.90;;;;;;4100293;29;20183;-93
2023/11/02 06:29:23;;;;;;;1.05;0.30;;;13.20;99.90;;;;;;4100241;28;20202;-92
2023/11/02 06:31:24;;;;;;;1.85;0.22;;;13.30;99.90;;;;;;4101575;29;20568;-95
2023/11/02 06:33:28;;;;;;;1.17;0.20;;;13.30;99.90;;;;;;4102862;28;20183;-93
2023/11/02 06:35:28;;;;;;;0.75;0.35;;;13.40;99.90;;;;;;4101343;29;20183;-92
2023/11/02 06:37:29;;;;;;;1.48;0.30;;;13.30;99.90;;;;;;4100227;28;20237;-92
2023/11/02 06:39:30;;;;;;;1.98;0.20;;;13.30;99.90;;;;;;4101252;29;20207;-95
2023/11/02 06:41:31;;;;;;;2.75;0.20;;;13.20;99.90;;;;;;4100467;28;20179;-92
2023/11/02 06:43:31;;;;;;;1.60;0.22;;;13.20;99.90;;;;;;4099850;29;20182;-91
2023/11/02 06:45:35;;;;;;;7.72;0.98;;;13.20;99.90;;;;;;4117661;28;20190;-94
2023/11/02 06:47:36;;;;;;;2.55;0.43;;;13.20;99.90;;;;;;4116932;28;20175;-93
2023/11/02 06:49:40;;;;;;;1.75;0.80;;;13.30;99.90;;;;;;4117145;28;20222;-94
2023/11/02 06:51:41;;;;;;;0.15;0.10;;;13.30;99.90;;;;;;4116830;28;20174;-94
2023/11/02 06:53:42;;;;;;;0.38;0.10;;;13.20;99.90;;;;;;4116798;28;20190;-95
2023/11/02 06:55:42;;;;;;;0.55;0.28;;;13.20;99.90;;;;;;4101107;29;20214;-94
2023/11/02 06:57:43;;;;;;;2.20;0.25;;;13.20;99.90;;;;;;4116723;28;20594;-95
2023/11/02 06:59:44;;;;;;;0.13;0.10;;;13.20;99.90;;;;;;4100516;29;20207;-93
2023/11/02 07:01:46;;;;;;;0.10;0.10;;;13.20;99.90;;;;;;4100679;28;20628;-95
2023/11/02 07:03:47;;;;;;;2.20;1.08;;;13.20;99.90;;;;;;4101349;29;20187;-92
2023/11/02 07:05:48;;;;;;;1.70;0.43;;;13.20;99.90;;;;;;4100899;29;20246;-94
2023/11/02 07:07:49;;;;;;;1.50;0.45;;;13.20;99.90;;;;;;4101062;29;20194;-96
2023/11/02 07:09:51;;;;;;;0.70;0.10;;;13.10;99.90;;;;;;4100632;29;20203;-95
2023/11/02 07:11:54;;;;;;;2.00;0.43;;;13.10;99.90;;;;;;4100954;29;20179;-94
2023/11/02 07:13:56;;;;;;;0.15;0.10;;;13.10;99.90;;;;;;4100705;29;20215;-93
2023/11/02 07:15:57;;;;;;;2.13;0.60;;;13.20;99.90;;;;;;4100708;29;20179;-95
2023/11/02 07:17:58;;;;;;;2.17;0.65;;;13.20;99.90;;;;;;4100355;29;20682;-94
2023/11/02 07:19:59;;;;;;;4.88;0.30;;;13.20;99.90;;;;;;4101164;29;20206;-93
2023/11/02 07:22:01;;;;;;;2.05;0.65;;;13.10;99.90;;;;;;4100222;29;20185;-93
2023/11/02 07:24:02;;;;;;;3.20;0.45;;;13.10;99.90;;;;;;4100760;28;20275;-95
2023/11/02 07:26:08;;;;;;;0.10;0.10;;;13.10;99.90;;;;;;4100585;28;20245;-93
2023/11/02 07:28:09;;;;;;;9.57;0.50;;;13.10;99.90;;;;;;4100638;29;20183;-93
2023/11/02 07:30:11;;;;;;;11.32;0.38;;;13.10;99.90;;;;;;4100408;29;20238;-94
2023/11/02 07:32:12;;;;;;;2.47;1.02;;;13.10;99.90;;;;;;4100409;29;20186;-92
2023/11/02 07:34:13;;;;;;;1.35;0.63;;;13.20;99.90;;;;;;4101794;29;20604;-93
2023/11/02 07:36:20;;;;;;;0.40;0.20;;;13.20;99.90;;;;;;4100039;29;20189;-95
2023/11/02 07:38:22;;;;;;;2.55;0.32;;;13.20;99.90;;;;;;4099864;29;20231;-91
2023/11/02 07:40:26;;;;;;;6.57;0.35;;;13.30;99.90;;;;;;4100065;29;20175;-95
2023/11/02 07:42:29;;;;;;;3.75;0.45;;;13.30;99.90;;;;;;4100381;29;20563;-93
2023/11/02 07:44:30;;;;;;;0.75;0.28;;;13.40;99.90;;;;;;4100073;28;20182;-92
2023/11/02 07:46:31;;;;;;;4.50;0.30;;;13.30;99.90;;;;;;4102064;29;20758;-94
2023/11/02 07:48:32;;;;;;;2.78;0.20;;;13.40;99.90;;;;;;4103322;29;20210;-94
2023/11/02 07:50:35;;;;;;;0.52;0.20;;;13.30;99.90;;;;;;4103325;29;20202;-93
2023/11/02 07:52:39;;;;;;;1.77;0.55;;;13.40;99.90;;;;;;4103237;29;20175;-94
2023/11/02 07:54:39;;;;;;;0.40;0.35;;;13.40;99.90;;;;;;4102480;29;20194;-93
2023/11/02 07:56:42;;;;;;;8.15;0.77;;;13.50;99.90;;;;;;4102956;29;20539;-93
2023/11/02 07:58:43;;;;;;;1.52;0.32;;;13.60;99.90;;;;;;4102293;29;20289;-93
2023/11/02 08:00:44;;;;;;;0.70;0.17;;;13.60;99.90;;;;;;4102690;29;20234;-93
2023/11/02 08:02:45;;;;;;;6.82;0.32;;;13.60;99.90;;;;;;4102735;29;20658;-92
2023/11/02 08:04:45;;;;;;;4.93;0.15;;;13.70;99.90;;;;;;4103954;28;20244;-95
2023/11/02 08:06:46;;;;;;;8.13;0.77;;;13.80;99.90;;;;;;4102474;29;20183;-95
2023/11/02 08:08:49;;;;;;;4.40;0.60;;;13.90;99.90;;;;;;4102610;29;20225;-94
2023/11/02 08:10:50;;;;;;;5.70;1.45;;;14.00;99.90;;;;;;4103677;29;20223;-93
2023/11/02 08:12:51;;;;;;;3.75;0.60;;;13.90;99.90;;;;;;4103232;28;20183;-93
2023/11/02 08:15:02;;;;;;;4.82;0.43;;;13.80;99.90;;;;;;4104013;28;20194;-94
2023/11/02 08:17:04;;;;;;;0.63;0.50;;;13.80;99.90;;;;;;4103019;29;20547;-92
2023/11/02 08:19:05;;;;;;;1.73;0.43;;;13.80;99.90;;;;;;4102972;29;20242;-94
2023/11/02 08:21:10;;;;;;;3.55;0.30;;;13.70;99.90;;;;;;4103002;29;20175;-92
2023/11/02 08:23:11;;;;;;;7.90;0.80;;;13.70;99.90;;;;;;4118993;28;20194;-93
2023/11/02 08:25:14;;;;;;;1.85;0.25;;;13.70;99.90;;;;;;4102396;29;20174;-95
2023/11/02 08:27:15;;;;;;;0.85;0.10;;;13.80;99.90;;;;;;4101953;29;20186;-94
2023/11/02 08:29:16;;;;;;;1.65;0.20;;;13.70;99.90;;;;;;4101982;29;20198;-92
2023/11/02 08:31:27;;;;;;;0.40;0.17;;;13.80;99.90;;;;;;4102199;28;20210;-94
2023/11/02 08:33:27;;;;;;;2.28;0.47;;;13.80;99.90;;;;;;4102125;29;20274;-93
2023/11/02 08:35:28;;;;;;;6.78;0.90;;;13.70;99.90;;;;;;4102516;29;20186;-95
2023/11/02 08:37:29;;;;;;;2.83;0.65;;;13.70;99.90;;;;;;4102637;29;20183;-93
2023/11/02 08:39:33;;;;;;;3.22;0.98;;;13.70;99.90;;;;;;4103081;28;20237;-91
2023/11/02 08:41:35;;;;;;;8.32;0.60;;;13.60;99.90;;;;;;4102733;28;20175;-95
2023/11/02 08:43:35;;;;;;;2.97;1.00;;;13.70;99.90;;;;;;4102696;29;20266;-94
2023/11/02 08:45:36;;;;;;;0.20;0.10;;;13.70;99.90;;;;;;4103319;28;20186;-93
2023/11/02 08:47:37;;;;;;;7.88;0.17;;;13.70;99.90;;;;;;4101560;29;20828;-94
2023/11/02 08:49:40;;;;;;;3.28;0.52;;;13.70;99.90;;;;;;4102134;29;20229;-94
2023/11/02 08:51:44;;;;;;;3.03;0.50;;;13.80;99.90;;;;;;4102232;28;20266;-92
2023/11/02 08:53:45;;;;;;;1.58;0.25;;;13.90;99.90;;;;;;4117801;28;20682;-94
2023/11/02 08:55:46;;;;;;;0.77;0.25;;;13.80;99.90;;;;;;4101863;28;20667;-93
2023/11/02 08:57:47;;;;;;;0.43;0.40;;;13.90;99.90;;;;;;4101046;28;20218;-94
2023/11/02 08:59:48;;;;;;;4.90;0.95;;;13.90;99.90;;;;;;4101524;29;20238;-95
2023/11/02 09:01:51;;;;;;;1.98;0.45;;;13.90;99.90;;;;;;4101681;29;20197;-94
2023/11/02 09:03:53;;;;;;;2.42;0.80;;;14.10;99.90;;;;;;4101457;28;20179;-93
2023/11/02 09:05:54;;;;;;;2.85;0.65;;;14.20;99.90;;;;;;4101847;29;20187;-93
2023/11/02 09:07:55;;;;;;;5.38;0.50;;;14.00;99.90;;;;;;4101849;29;20179;-93
2023/11/02 09:09:56;;;;;;;3.33;0.68;;;14.00;99.90;;;;;;4101243;29;20195;-92
2023/11/02 09:11:57;;;;;;;2.72;0.20;;;14.00;99.90;;;;;;4101699;29;20592;-93
2023/11/02 09:13:58;;;;;;;2.20;0.40;;;14.00;99.90;;;;;;4117315;28;20174;-94
2023/11/02 09:15:59;;;;;;;4.68;0.50;;;13.90;99.90;;;;;;4116790;28;20186;-94
2023/11/02 09:18:00;;;;;;;4.80;0.40;;;13.90;99.90;;;;;;4102182;29;20250;-93
2023/11/02 09:20:08;;;;;;;1.40;0.65;;;13.80;99.90;;;;;;4101204;29;20218;-93
2023/11/02 09:22:10;;;;;;;4.88;0.50;;;13.80;99.90;;;;;;4101093;29;20188;-93
2023/11/02 09:24:14;;;;;;;5.10;0.82;;;13.70;99.90;;;;;;4101327;29;20175;-93
2023/11/02 09:26:14;;;;;;;6.32;0.75;;;13.70;99.90;;;;;;4100886;29;20642;-92
2023/11/02 09:28:16;;;;;;;4.70;0.70;;;13.70;99.90;;;;;;4100956;29;20187;-93
2023/11/02 09:30:19;;;;;;;1.60;0.80;;;13.70;99.90;;;;;;4101197;29;20623;-93
2023/11/02 09:32:20;;;;;;;1.10;0.28;;;13.70;99.90;;;;;;4101653;29;20179;-93
2023/11/02 09:34:21;;;;;;;5.00;1.85;;;13.60;99.90;;;;;;4101463;29;20234;-92
2023/11/02 09:36:23;;;;;;;2.78;0.50;;;13.60;99.90;;;;;;4116476;28;20286;-93
2023/11/02 09:38:24;;;;;;;4.38;0.47;;;13.60;99.90;;;;;;4100427;29;20210;-93
2023/11/02 09:40:26;;;;;;;1.27;0.50;;;13.60;99.90;;;;;;4101555;29;20186;-94
2023/11/02 09:42:29;;;;;;;3.40;1.20;;;13.60;99.90;;;;;;4100606;28;20194;-93
2023/11/02 09:44:31;;;;;;;0.25;0.20;;;13.70;99.90;;;;;;4100562;29;20183;-93
2023/11/02 09:46:32;;;;;;;1.35;0.30;;;13.70;99.90;;;;;;4101651;29;20182;-94
2023/11/02 09:48:33;;;;;;;2.28;0.40;;;13.70;99.90;;;;;;4100658;29;20175;-94
2023/11/02 09:50:37;;;;;;;4.63;0.73;;;13.70;99.90;;;;;;4100443;28;20183;-93
2023/11/02 09:52:39;;;;;;;2.83;0.77;;;13.70;99.90;;;;;;4100835;29;20250;-95
2023/11/02 09:54:39;;;;;;;11.68;1.55;;;13.70;99.90;;;;;;4100512;29;20183;-92
2023/11/02 09:56:41;;;;;;;0.93;0.20;;;13.70;99.90;;;;;;4100756;29;20187;-93
2023/11/02 09:58:43;;;;;;;2.00;0.38;;;13.70;99.90;;;;;;4100648;29;20278;-92
2023/11/02 10:00:46;;;;;;;0.73;0.32;;;13.70;99.90;;;;;;4101275;29;20178;-96
2023/11/02 10:02:48;;;;;;;5.63;1.02;;;13.70;99.90;;;;;;4116512;28;20193;-93
2023/11/02 10:04:49;;;;;;;3.72;0.45;;;13.60;99.90;;;;;;4101462;29;20733;-91
2023/11/02 10:06:50;;;;;;;2.20;0.68;;;13.60;99.90;;;;;;4116790;28;20182;-94
2023/11/02 10:08:50;;;;;;;2.28;0.65;;;13.50;99.90;;;;;;4099709;28;20207;-92
2023/11/02 10:11:09;;;;;;;2.72;0.75;;;13.40;99.90;;;;;;4116529;28;20265;-92
2023/11/02 10:13:10;;;;;;;3.25;0.63;;;13.50;99.90;;;;;;4100796;29;20278;-92
2023/11/02 10:15:16;;;;;;;0.43;0.30;;;13.50;99.90;;;;;;4100372;29;20191;-94
2023/11/02 10:17:18;;;;;;;0.47;0.40;;;13.40;99.90;;;;;;4100445;29;20599;-94
2023/11/02 10:19:19;;;;;;;1.70;0.20;;;13.40;99.90;;;;;;4100293;29;20223;-95
2023/11/02 10:21:20;;;;;;;0.50;0.30;;;13.40;99.90;;;;;;4116037;28;20344;-94
2023/11/02 10:23:20;;;;;;;1.25;0.20;;;13.50;99.90;;;;;;4100331;29;20182;-92
2023/11/02 10:25:21;;;;;;;0.68;0.22;;;13.50;99.90;;;;;;4116800;28;20178;-91
2023/11/02 10:27:25;;;;;;;2.25;0.30;;;13.50;99.90;;;;;;4100269;29;20624;-93
2023/11/02 10:29:45;;;;;;;;;;;;;;;;;;;;;
2023/11/02 10:31:52;;;;;;;3.13;0.30;;;13.60;99.90;;;;;;4116114;28;20177;-94
2023/11/02 10:33:53;;;;;;;5.22;0.70;;;13.70;99.90;;;;;;4101382;29;20194;-94
2023/11/02 10:35:53;;;;;;;1.98;0.80;;;13.70;99.90;;;;;;4116651;28;20269;-90
2023/11/02 10:37:54;;;;;;;1.92;0.57;;;13.70;99.90;;;;;;4116063;28;20226;-93
2023/11/02 10:39:55;;;;;;;14.35;0.52;;;13.60;99.90;;;;;;4100174;29;20258;-92
2023/11/02 10:42:01;;;;;;;6.95;0.95;;;13.50;99.90;;;;;;4100010;29;20189;-95
2023/11/02 10:44:07;;;;;;;1.30;0.10;;;13.50;99.90;;;;;;4115862;28;20631;-92
2023/11/02 10:46:11;;;;;;;2.20;0.68;;;13.50;99.90;;;;;;4101411;29;20234;-93
2023/11/02 10:48:35;;;;;;;3.60;0.93;;;13.30;99.90;;;;;;4101205;28;20179;-92
2023/11/02 10:50:38;;;;;;;0.70;0.30;;;13.20;99.90;;;;;;4100603;29;20293;-91
2023/11/02 10:52:46;;;;;;;0.65;0.28;;;13.10;99.90;;;;;;4100306;29;20175;-93